createdAt,value
2018-04-25T00:02:08.923Z,9.43
2018-04-25T00:04:37.183Z,9.93
2018-04-25T00:07:06.228Z,12.93
2018-04-25T00:09:34.483Z,10.73
2018-04-25T00:12:02.750Z,7.17
2018-04-25T00:14:31.026Z,8.23
2018-04-25T00:16:59.286Z,9.97
2018-04-25T00:19:28.326Z,10.67
2018-04-25T00:21:56.595Z,9.67
2018-04-25T00:24:24.865Z,8.17
2018-04-25T00:26:53.105Z,7.67
2018-04-25T00:29:22.122Z,7.80
2018-04-25T00:31:50.372Z,10.77
2018-04-25T00:34:19.429Z,6.80
2018-04-25T00:36:48.439Z,5.90
2018-04-25T00:39:16.717Z,9.67
2018-04-25T00:41:44.958Z,7.67
2018-04-25T00:44:13.230Z,6.00
2018-04-25T00:46:41.683Z,7.77
2018-04-25T00:49:10.744Z,4.93
2018-04-25T00:51:38.990Z,6.30
2018-04-25T00:54:07.265Z,9.53
2018-04-25T00:56:35.522Z,10.40
2018-04-25T00:59:03.786Z,7.43
2018-04-25T01:01:32.060Z,10.27
2018-04-25T01:04:00.306Z,9.40
2018-04-25T01:06:28.553Z,7.57
2018-04-25T01:08:56.821Z,10.90
2018-04-25T01:11:25.093Z,10.80
2018-04-25T01:13:53.350Z,6.20
2018-04-25T01:16:21.630Z,11.50
2018-04-25T01:18:49.902Z,6.17
2018-04-25T01:21:18.162Z,7.57
2018-04-25T01:23:46.418Z,7.03
2018-04-25T01:26:15.467Z,9.97
2018-04-25T01:28:51.545Z,7.47
2018-04-25T01:31:34.676Z,5.93
2018-04-25T01:37:01.974Z,11.03
2018-04-25T01:39:54.514Z,7.80
2018-04-25T01:42:28.257Z,8.90
2018-04-25T01:45:02.994Z,9.77
2018-04-25T01:47:31.874Z,8.40
2018-04-25T01:53:11.413Z,6.00
2018-04-25T01:55:51.482Z,8.47
2018-04-25T01:58:31.582Z,7.93
2018-04-25T02:01:11.562Z,10.07
2018-04-25T02:03:51.612Z,11.80
2018-04-25T02:06:19.876Z,6.57
2018-04-25T02:08:48.139Z,5.07
2018-04-25T02:11:16.415Z,10.97
2018-04-25T02:13:44.669Z,6.63
2018-04-25T02:16:12.926Z,6.80
2018-04-25T02:18:41.174Z,8.40
2018-04-25T02:21:10.224Z,8.60
2018-04-25T02:23:38.481Z,10.37
2018-04-25T02:26:06.731Z,9.40
2018-04-25T02:28:34.988Z,6.97
2018-04-25T02:31:04.019Z,7.87
2018-04-25T02:33:32.283Z,6.53
2018-04-25T02:36:00.607Z,10.40
2018-04-25T02:38:28.815Z,10.50
2018-04-25T02:40:57.848Z,8.77
2018-04-25T02:43:26.120Z,9.57
2018-04-25T02:45:54.368Z,10.13
2018-04-25T02:48:23.393Z,8.50
2018-04-25T02:50:51.649Z,9.20
2018-04-25T02:53:19.921Z,9.43
2018-04-25T02:55:48.181Z,7.17
2018-04-25T02:58:17.208Z,7.87
2018-04-25T03:00:45.450Z,10.03
2018-04-25T03:03:14.487Z,14.20
2018-04-25T03:05:42.762Z,9.23
2018-04-25T03:08:11.027Z,14.53
2018-04-25T03:10:39.296Z,11.27
2018-04-25T03:13:07.559Z,9.80
2018-04-25T03:15:36.582Z,11.40
2018-04-25T03:18:04.831Z,9.83
2018-04-25T03:20:33.857Z,8.93
2018-04-25T03:23:02.119Z,7.97
2018-04-25T03:25:30.390Z,10.80
2018-04-25T03:27:58.637Z,10.17
2018-04-25T03:30:26.910Z,8.73
2018-04-25T03:32:55.931Z,9.00
2018-04-25T03:35:24.312Z,13.00
2018-04-25T03:37:52.591Z,12.43
2018-04-25T03:40:21.605Z,13.60
2018-04-25T03:42:50.220Z,14.23
2018-04-25T03:45:18.595Z,12.73
2018-04-25T03:47:46.918Z,15.37
2018-04-25T03:50:15.166Z,11.30
2018-04-25T03:52:43.447Z,11.77
2018-04-25T03:55:11.679Z,9.07
2018-04-25T03:57:39.954Z,8.67
2018-04-25T04:00:08.220Z,14.20
2018-04-25T04:02:36.496Z,10.20
2018-04-25T04:05:04.736Z,8.97
2018-04-25T04:07:33.788Z,10.17
2018-04-25T04:10:02.064Z,15.17
2018-04-25T04:12:30.315Z,13.30
2018-04-25T04:14:58.611Z,11.63
2018-04-25T04:17:26.884Z,10.87
2018-04-25T04:19:55.164Z,12.83
2018-04-25T04:22:23.414Z,13.07
2018-04-25T04:24:51.790Z,13.43
2018-04-25T04:27:20.051Z,12.03
2018-04-25T04:29:48.309Z,12.27
2018-04-25T04:32:17.363Z,16.00
2018-04-25T04:34:45.645Z,20.93
2018-04-25T04:37:13.933Z,11.10
2018-04-25T04:39:42.254Z,13.37
2018-04-25T04:42:10.602Z,11.20
2018-04-25T04:44:38.950Z,12.23
2018-04-25T04:47:07.239Z,12.80
2018-04-25T04:49:35.536Z,11.17
2018-04-25T04:52:04.547Z,19.87
2018-04-25T04:54:33.585Z,11.17
2018-04-25T04:57:01.910Z,15.60
2018-04-25T04:59:30.181Z,14.33
2018-04-25T05:01:58.461Z,15.20
2018-04-25T05:04:27.515Z,14.00
2018-04-25T05:06:55.780Z,10.83
2018-04-25T05:09:24.100Z,17.73
2018-04-25T05:11:52.395Z,16.87
2018-04-25T05:14:21.421Z,14.23
2018-04-25T05:16:49.718Z,19.23
2018-04-25T05:19:18.014Z,20.40
2018-04-25T05:21:46.291Z,9.60
2018-04-25T05:24:15.312Z,15.17
2018-04-25T05:26:44.360Z,16.20
2018-04-25T05:29:12.646Z,12.97
2018-04-25T05:31:40.915Z,14.73
2018-04-25T05:34:09.259Z,11.83
2018-04-25T05:36:37.548Z,19.07
2018-04-25T05:39:05.880Z,10.07
2018-04-25T05:41:34.914Z,13.20
2018-04-25T05:44:03.190Z,12.77
2018-04-25T05:46:31.467Z,12.57
2018-04-25T05:48:59.778Z,10.53
2018-04-25T05:51:28.069Z,16.00
2018-04-25T05:53:56.376Z,12.67
2018-04-25T05:56:24.645Z,22.10
2018-04-25T05:58:53.031Z,13.17
2018-04-25T06:01:21.302Z,16.90
2018-04-25T06:03:50.351Z,16.93
2018-04-25T06:06:18.614Z,14.63
2018-04-25T06:08:47.767Z,14.53
2018-04-25T06:11:18.227Z,17.17
2018-04-25T06:13:46.475Z,12.37
2018-04-25T06:16:14.751Z,12.53
2018-04-25T06:18:43.788Z,10.40
2018-04-25T06:21:12.043Z,13.20
2018-04-25T06:23:40.317Z,16.17
2018-04-25T06:26:08.603Z,19.27
2018-04-25T06:28:36.994Z,17.77
2018-04-25T06:31:05.266Z,18.67
2018-04-25T06:33:33.575Z,11.57
2018-04-25T06:36:01.842Z,11.17
2018-04-25T06:38:30.130Z,18.00
2018-04-25T06:40:58.459Z,14.70
2018-04-25T06:43:26.762Z,12.13
2018-04-25T06:45:55.026Z,14.80
2018-04-25T06:48:23.328Z,8.27
2018-04-25T06:50:51.624Z,14.63
2018-04-25T06:53:19.917Z,12.53
2018-04-25T06:55:48.942Z,15.40
2018-04-25T06:58:17.226Z,11.77
2018-04-25T07:00:46.169Z,13.90
2018-04-25T07:03:14.539Z,11.53
2018-04-25T07:05:42.802Z,9.90
2018-04-25T07:08:11.135Z,13.88
2018-04-25T07:10:39.388Z,15.05
2018-04-25T07:13:07.687Z,16.70
2018-04-25T07:15:35.963Z,13.07
2018-04-25T07:18:04.245Z,10.00
2018-04-25T07:20:32.512Z,25.00
2018-04-25T07:23:00.765Z,11.38
2018-04-25T07:25:29.803Z,15.02
2018-04-25T07:27:58.119Z,12.45
2018-04-25T07:30:26.415Z,9.25
2018-04-25T07:32:55.510Z,12.40
2018-04-25T07:35:24.592Z,11.52
2018-04-25T07:37:52.854Z,9.30
2018-04-25T07:40:21.117Z,14.68
2018-04-25T07:42:49.397Z,7.80
2018-04-25T07:45:17.717Z,12.93
2018-04-25T07:47:46.013Z,12.02
2018-04-25T07:50:14.301Z,10.02
2018-04-25T07:52:42.689Z,12.05
2018-04-25T07:55:10.941Z,11.55
2018-04-25T07:57:39.427Z,13.30
2018-04-25T08:00:07.659Z,12.13
2018-04-25T08:02:35.919Z,15.43
2018-04-25T08:05:04.190Z,17.70
2018-04-25T08:07:32.492Z,15.52
2018-04-25T08:10:00.759Z,12.07
2018-04-25T08:12:40.854Z,15.60
2018-04-25T08:15:21.004Z,19.23
2018-04-25T08:18:01.346Z,23.45
2018-04-25T08:20:41.389Z,20.92
2018-04-25T08:23:10.434Z,15.80
2018-04-25T08:25:38.706Z,15.83
2018-04-25T08:28:07.030Z,18.70
2018-04-25T08:30:35.364Z,13.73
2018-04-25T08:33:03.614Z,14.43
2018-04-25T08:35:31.897Z,19.03
2018-04-25T08:38:00.187Z,10.23
2018-04-25T08:40:28.470Z,18.73
2018-04-25T08:42:56.819Z,13.67
2018-04-25T08:45:25.873Z,15.13
2018-04-25T08:47:54.176Z,16.70
2018-04-25T08:50:22.487Z,17.00
2018-04-25T08:52:50.811Z,12.20
2018-04-25T08:55:19.096Z,15.63
2018-04-25T08:57:47.402Z,18.07
2018-04-25T09:00:16.417Z,15.03
2018-04-25T09:02:44.694Z,15.17
2018-04-25T09:05:13.047Z,17.30
2018-04-25T09:07:41.309Z,12.70
2018-04-25T09:10:10.413Z,13.30
2018-04-25T09:12:39.448Z,12.47
2018-04-25T09:15:07.737Z,16.87
2018-04-25T09:17:36.022Z,13.67
2018-04-25T09:20:04.451Z,11.67
2018-04-25T09:22:33.485Z,15.80
2018-04-25T09:25:01.738Z,23.57
2018-04-25T09:27:30.006Z,25.90
2018-04-25T09:29:58.451Z,17.43
2018-04-25T09:32:27.697Z,20.33
2018-04-25T09:34:55.951Z,14.97
2018-04-25T09:37:24.225Z,14.73
2018-04-25T09:39:52.502Z,11.03
2018-04-25T09:42:20.804Z,18.17
2018-04-25T09:44:49.078Z,15.20
2018-04-25T09:47:17.412Z,19.97
2018-04-25T09:49:45.862Z,15.10
2018-04-25T09:52:14.151Z,13.30
2018-04-25T09:54:42.481Z,12.37
2018-04-25T09:57:10.746Z,16.70
2018-04-25T09:59:39.056Z,14.07
2018-04-25T10:02:07.459Z,19.43
2018-04-25T10:04:35.792Z,9.83
2018-04-25T10:07:04.111Z,16.93
2018-04-25T10:09:32.382Z,14.10
2018-04-25T10:12:00.723Z,11.13
2018-04-25T10:14:29.047Z,13.97
2018-04-25T10:16:57.586Z,18.63
2018-04-25T10:19:25.812Z,8.20
2018-04-25T10:21:54.115Z,8.47
2018-04-25T10:24:23.142Z,9.40
2018-04-25T10:26:51.510Z,18.23
2018-04-25T10:29:19.883Z,10.87
2018-04-25T10:31:48.185Z,10.23
2018-04-25T10:34:16.514Z,22.17
2018-04-25T10:36:44.768Z,7.43
2018-04-25T10:39:13.038Z,16.00
2018-04-25T10:41:41.325Z,18.30
2018-04-25T10:44:09.666Z,15.97
2018-04-25T10:46:37.901Z,12.67
2018-04-25T10:49:06.195Z,12.00
2018-04-25T10:51:34.462Z,14.70
2018-04-25T10:54:02.710Z,9.37
2018-04-25T10:56:31.757Z,10.50
2018-04-25T10:59:00.163Z,14.20
2018-04-25T11:01:28.472Z,16.40
2018-04-25T11:03:56.781Z,9.77
2018-04-25T11:06:25.205Z,7.33
2018-04-25T11:08:54.025Z,15.60
2018-04-25T11:11:22.349Z,10.10
2018-04-25T11:13:50.669Z,12.40
2018-04-25T11:16:19.747Z,10.97
2018-04-25T11:18:48.055Z,12.53
2018-04-25T11:21:17.091Z,15.83
2018-04-25T11:23:45.374Z,12.27
2018-04-25T11:26:13.630Z,9.50
2018-04-25T11:28:41.902Z,10.43
2018-04-25T11:31:10.163Z,10.60
2018-04-25T11:33:38.485Z,18.50
2018-04-25T11:36:06.815Z,13.57
2018-04-25T11:38:35.093Z,9.93
2018-04-25T11:41:03.367Z,11.93
2018-04-25T11:43:31.617Z,11.83
2018-04-25T11:46:00.661Z,14.40
2018-04-25T11:48:28.931Z,29.63
2018-04-25T11:50:57.190Z,13.50
2018-04-25T11:53:25.466Z,12.97
2018-04-25T11:55:53.732Z,11.40
2018-04-25T11:58:22.007Z,8.50
2018-04-25T12:00:50.277Z,10.37
2018-04-25T12:03:19.338Z,11.53
2018-04-25T12:05:47.614Z,13.03
2018-04-25T12:08:15.911Z,15.03
2018-04-25T12:10:44.183Z,11.17
2018-04-25T12:13:12.592Z,14.47
2018-04-25T12:15:40.818Z,15.80
2018-04-25T12:18:09.188Z,7.83
2018-04-25T12:20:37.436Z,11.93
2018-04-25T12:23:05.726Z,13.77
2018-04-25T12:25:34.007Z,21.43
2018-04-25T12:28:02.278Z,14.83
2018-04-25T12:30:30.560Z,30.40
2018-04-25T12:32:58.827Z,11.23
2018-04-25T12:35:27.130Z,16.10
2018-04-25T12:37:55.403Z,14.00
2018-04-25T12:40:23.754Z,15.33
2018-04-25T12:42:52.027Z,12.73
2018-04-25T12:45:20.437Z,12.87
2018-04-25T12:47:48.713Z,10.30
2018-04-25T12:50:17.022Z,9.93
2018-04-25T12:52:45.284Z,11.30
2018-04-25T12:55:13.915Z,9.53
2018-04-25T12:57:42.196Z,13.10
2018-04-25T13:00:10.481Z,11.93
2018-04-25T13:02:38.750Z,7.33
2018-04-25T13:05:07.029Z,12.47
2018-04-25T13:07:35.294Z,8.03
2018-04-25T13:10:03.593Z,9.33
2018-04-25T13:12:31.880Z,11.27
2018-04-25T13:15:00.260Z,15.30
2018-04-25T13:17:29.301Z,16.43
2018-04-25T13:19:58.329Z,13.30
2018-04-25T13:22:26.634Z,5.97
2018-04-25T13:24:54.917Z,8.53
2018-04-25T13:27:23.254Z,11.30
2018-04-25T13:29:51.599Z,9.37
2018-04-25T13:32:19.929Z,12.17
2018-04-25T13:34:48.267Z,16.07
2018-04-25T13:37:16.534Z,15.17
2018-04-25T13:39:45.564Z,10.67
2018-04-25T13:42:13.888Z,10.47
2018-04-25T13:44:42.254Z,11.40
2018-04-25T13:47:10.573Z,7.90
2018-04-25T13:49:39.579Z,10.77
2018-04-25T13:52:07.867Z,11.17
2018-04-25T13:54:36.136Z,17.77
2018-04-25T13:57:04.415Z,11.90
2018-04-25T13:59:32.725Z,10.93
2018-04-25T14:02:01.100Z,16.50
2018-04-25T14:04:29.373Z,8.63
2018-04-25T14:06:57.641Z,14.97
2018-04-25T14:09:26.684Z,10.40
2018-04-25T14:11:55.692Z,12.40
2018-04-25T14:14:23.985Z,8.67
2018-04-25T14:16:52.230Z,12.53
2018-04-25T14:19:21.258Z,9.77
2018-04-25T14:21:49.528Z,7.67
2018-04-25T14:24:17.901Z,6.47
2018-04-25T14:26:46.198Z,7.07
2018-04-25T14:29:14.497Z,11.30
2018-04-25T14:31:42.758Z,10.40
2018-04-25T14:34:11.033Z,9.40
2018-04-25T14:36:39.353Z,10.00
2018-04-25T14:39:08.396Z,9.50
2018-04-25T14:41:36.696Z,10.63
2018-04-25T14:44:04.962Z,8.47
2018-04-25T14:46:33.219Z,6.63
2018-04-25T14:49:01.695Z,10.20
2018-04-25T14:51:31.161Z,10.37
2018-04-25T14:53:59.606Z,6.20
2018-04-25T14:56:27.844Z,5.07
2018-04-25T14:58:56.166Z,7.07
2018-04-25T15:01:24.433Z,7.17
2018-04-25T15:03:52.965Z,5.90
2018-04-25T15:06:21.974Z,5.97
2018-04-25T15:08:50.259Z,6.87
2018-04-25T15:11:18.582Z,11.57
2018-04-25T15:13:46.877Z,5.57
2018-04-25T15:16:15.764Z,6.07
2018-04-25T15:18:44.130Z,5.13
2018-04-25T15:21:12.367Z,7.70
2018-04-25T15:23:40.626Z,7.63
2018-04-25T15:26:08.946Z,7.60
2018-04-25T15:28:37.231Z,5.40
2018-04-25T15:31:05.510Z,6.13
2018-04-25T15:33:33.800Z,5.87
2018-04-25T15:36:02.056Z,8.43
2018-04-25T15:38:30.327Z,8.97
2018-04-25T15:40:59.626Z,7.50
2018-04-25T15:43:27.926Z,10.10
2018-04-25T15:45:57.025Z,5.80
2018-04-25T15:48:25.306Z,8.50
2018-04-25T15:50:54.392Z,7.00
2018-04-25T15:53:22.723Z,8.63
2018-04-25T15:55:51.743Z,6.80
2018-04-25T15:58:20.038Z,11.37
2018-04-25T16:00:48.314Z,5.97
2018-04-25T16:03:16.594Z,7.10
2018-04-25T16:05:44.930Z,5.20
2018-04-25T16:08:13.217Z,6.93
2018-04-25T16:10:41.481Z,9.13
2018-04-25T16:13:09.738Z,7.80
2018-04-25T16:15:37.980Z,6.70
2018-04-25T16:18:06.309Z,9.87
2018-04-25T16:20:34.558Z,9.00
2018-04-25T16:23:02.850Z,5.03
2018-04-25T16:25:31.116Z,5.50
2018-04-25T16:27:59.382Z,7.83
2018-04-25T16:30:27.675Z,5.90
2018-04-25T16:32:55.974Z,10.83
2018-04-25T16:35:24.245Z,10.73
2018-04-25T16:37:52.536Z,7.97
2018-04-25T16:40:20.866Z,7.70
2018-04-25T16:42:49.914Z,9.83
2018-04-25T16:45:18.223Z,4.97
2018-04-25T16:47:46.507Z,7.90
2018-04-25T16:50:15.561Z,7.83
2018-04-25T16:52:43.832Z,6.73
2018-04-25T16:55:12.092Z,9.77
2018-04-25T16:57:40.405Z,5.20
2018-04-25T17:00:08.698Z,4.20
2018-04-25T17:02:37.022Z,4.13
2018-04-25T17:05:05.292Z,4.47
2018-04-25T17:07:33.595Z,6.20
2018-04-25T17:10:01.880Z,7.27
2018-04-25T17:12:30.224Z,6.67
2018-04-25T17:14:58.545Z,8.70
2018-04-25T17:17:26.868Z,4.43
2018-04-25T17:19:55.187Z,5.70
2018-04-25T17:22:23.447Z,5.63
2018-04-25T17:24:51.834Z,3.87
2018-04-25T17:27:20.146Z,5.43
2018-04-25T17:29:49.213Z,3.30
2018-04-25T17:32:17.480Z,6.83
2018-04-25T17:34:45.733Z,5.13
2018-04-25T17:37:14.012Z,8.83
2018-04-25T17:39:42.263Z,5.40
2018-04-25T17:42:10.561Z,4.80
2018-04-25T17:44:38.831Z,5.00
2018-04-25T17:47:07.156Z,6.23
2018-04-25T17:49:35.500Z,3.80
2018-04-25T17:52:03.823Z,6.10
2018-04-25T17:54:32.078Z,5.60
2018-04-25T17:57:00.385Z,3.50
2018-04-25T17:59:28.670Z,5.67
2018-04-25T18:01:58.581Z,7.37
2018-04-25T18:04:27.035Z,5.53
2018-04-25T18:06:55.492Z,3.57
2018-04-25T18:09:23.852Z,4.60
2018-04-25T18:11:52.121Z,9.30
2018-04-25T18:14:20.417Z,8.43
2018-04-25T18:16:48.744Z,5.07
2018-04-25T18:19:18.134Z,6.57
2018-04-25T18:21:46.510Z,12.07
2018-04-25T18:24:14.927Z,4.80
2018-04-25T18:26:43.240Z,5.47
2018-04-25T18:29:11.483Z,6.03
2018-04-25T18:31:39.764Z,3.77
2018-04-25T18:34:08.031Z,8.17
2018-04-25T18:36:36.322Z,4.40
2018-04-25T18:39:04.768Z,4.87
2018-04-25T18:41:33.930Z,4.73
2018-04-25T18:44:02.295Z,6.80
2018-04-25T18:46:30.540Z,6.00
2018-04-25T18:48:58.854Z,3.93
2018-04-25T18:51:27.120Z,5.80
2018-04-25T18:53:55.438Z,6.10
2018-04-25T18:56:23.689Z,7.10
2018-04-25T18:58:51.962Z,4.23
2018-04-25T19:01:20.248Z,5.40
2018-04-25T19:03:48.628Z,3.33
2018-04-25T19:06:16.927Z,3.97
2018-04-25T19:08:46.050Z,4.67
2018-04-25T19:11:15.123Z,3.60
2018-04-25T19:13:43.420Z,3.37
2018-04-25T19:16:11.698Z,4.90
2018-04-25T19:18:40.722Z,4.47
2018-04-25T19:21:08.994Z,3.40
2018-04-25T19:23:37.273Z,5.50
2018-04-25T19:26:05.546Z,5.63
2018-04-25T19:28:33.989Z,4.20
2018-04-25T19:31:02.227Z,3.43
2018-04-25T19:33:30.579Z,4.90
2018-04-25T19:35:58.800Z,5.17
2018-04-25T19:38:27.084Z,5.00
2018-04-25T19:40:56.113Z,6.53
2018-04-25T19:43:24.473Z,5.63
2018-04-25T19:45:53.537Z,3.80
2018-04-25T19:48:21.806Z,2.50
2018-04-25T19:50:50.142Z,5.77
2018-04-25T19:53:18.419Z,5.47
2018-04-25T19:55:46.708Z,3.27
2018-04-25T19:58:14.972Z,2.00
2018-04-25T20:00:43.255Z,2.23
2018-04-25T20:03:12.495Z,2.90
2018-04-25T20:05:40.770Z,3.97
2018-04-25T20:08:09.050Z,1.80
2018-04-25T20:10:37.436Z,4.43
2018-04-25T20:13:05.800Z,1.77
2018-04-25T20:15:34.186Z,2.03
2018-04-25T20:18:02.475Z,1.73
2018-04-25T20:20:30.848Z,1.40
2018-04-25T20:22:59.894Z,2.20
2018-04-25T20:25:28.180Z,2.37
2018-04-25T20:27:56.545Z,1.90
2018-04-25T20:30:24.848Z,4.30
2018-04-25T20:32:53.111Z,1.63
2018-04-25T20:35:21.394Z,3.03
2018-04-25T20:37:49.663Z,2.53
2018-04-25T20:40:17.980Z,3.00
2018-04-25T20:42:46.243Z,1.57
2018-04-25T20:45:14.520Z,1.73
2018-04-25T20:47:43.047Z,3.93
2018-04-25T20:50:11.722Z,2.63
2018-04-25T20:52:40.764Z,3.87
2018-04-25T20:55:09.113Z,1.47
2018-04-25T20:57:37.409Z,2.70
2018-04-25T21:00:05.717Z,3.50
2018-04-25T21:02:34.116Z,2.30
2018-04-25T21:05:02.321Z,3.23
2018-04-25T21:07:30.599Z,2.60
2018-04-25T21:09:58.895Z,2.77
2018-04-25T21:12:27.129Z,3.13
2018-04-25T21:14:56.146Z,1.90
2018-04-25T21:17:24.483Z,2.77
2018-04-25T21:19:52.700Z,2.30
2018-04-25T21:22:20.961Z,4.17
2018-04-25T21:24:49.318Z,2.57
2018-04-25T21:27:17.535Z,1.93
2018-04-25T21:29:45.795Z,2.37
2018-04-25T21:32:14.066Z,2.73
2018-04-25T21:34:42.327Z,2.37
2018-04-25T21:37:11.346Z,2.20
2018-04-25T21:39:39.638Z,3.63
2018-04-25T21:42:07.882Z,3.13
2018-04-25T21:44:36.289Z,2.47
2018-04-25T21:47:04.588Z,2.73
2018-04-25T21:49:33.332Z,3.20
2018-04-25T21:52:01.590Z,2.50
2018-04-25T21:54:31.333Z,3.07
2018-04-25T21:56:59.609Z,1.93
2018-04-25T21:59:27.858Z,2.03
2018-04-25T22:01:56.957Z,1.80
2018-04-25T22:04:25.986Z,2.67
2018-04-25T22:06:54.277Z,2.23
2018-04-25T22:09:22.543Z,2.07
2018-04-25T22:11:50.961Z,4.43
2018-04-25T22:14:19.271Z,2.87
2018-04-25T22:16:47.543Z,3.43
2018-04-25T22:19:16.553Z,2.73
2018-04-25T22:21:44.799Z,2.30
2018-04-25T22:24:13.847Z,4.37
2018-04-25T22:26:42.118Z,2.10
2018-04-25T22:29:10.393Z,2.27
2018-04-25T22:31:39.013Z,2.30
2018-04-25T22:34:08.090Z,2.30
2018-04-25T22:36:37.911Z,2.50
2018-04-25T22:39:06.196Z,4.17
2018-04-25T22:41:34.480Z,2.27
2018-04-25T22:44:03.520Z,3.87
2018-04-25T22:46:31.839Z,2.50
2018-04-25T22:49:00.097Z,2.37
2018-04-25T22:51:28.382Z,2.90
2018-04-25T22:53:56.664Z,2.40
2018-04-25T22:56:24.918Z,4.13
2018-04-25T22:58:54.154Z,3.73
2018-04-25T23:01:22.435Z,2.40
2018-04-25T23:03:51.459Z,2.90
2018-04-25T23:06:19.724Z,4.23
2018-04-25T23:08:48.033Z,4.80
2018-04-25T23:11:16.294Z,2.20
2018-04-25T23:13:44.538Z,3.43
2018-04-25T23:16:13.604Z,3.83
2018-04-25T23:18:42.083Z,4.30
2018-04-25T23:21:10.359Z,3.00
2018-04-25T23:23:38.623Z,3.53
2018-04-25T23:26:06.880Z,2.33
2018-04-25T23:28:35.155Z,2.63
2018-04-25T23:31:03.424Z,2.40
2018-04-25T23:33:31.692Z,4.50
2018-04-25T23:35:59.939Z,2.30
2018-04-25T23:38:28.971Z,3.90
2018-04-25T23:40:57.262Z,4.03
2018-04-25T23:43:25.626Z,2.90
2018-04-25T23:45:53.892Z,5.83
2018-04-25T23:48:22.186Z,3.33
2018-04-25T23:50:50.520Z,2.50
2018-04-25T23:53:18.808Z,3.23
2018-04-25T23:55:47.827Z,2.27
2018-04-25T23:58:16.246Z,2.60
